sensor_id;sensor_type;location;lat;lon;timestamp;P1;durP1;ratioP1;P2;durP2;ratioP2
444;SDS011;209;48.774;9.238;2022-10-03T00:02:32;0.90;;;0.57;;
444;SDS011;209;48.774;9.238;2022-10-03T00:05:29;1.23;;;0.90;;
444;SDS011;209;48.774;9.238;2022-10-03T00:08:26;1.10;;;1.00;;
444;SDS011;209;48.774;9.238;2022-10-03T00:11:20;0.83;;;0.67;;
444;SDS011;209;48.774;9.238;2022-10-03T00:14:12;0.90;;;0.80;;
444;SDS011;209;48.774;9.238;2022-10-03T00:17:04;0.70;;;0.63;;
444;SDS011;209;48.774;9.238;2022-10-03T00:19:55;0.90;;;0.63;;
444;SDS011;209;48.774;9.238;2022-10-03T00:22:46;1.43;;;0.90;;
444;SDS011;209;48.774;9.238;2022-10-03T00:25:40;1.23;;;1.13;;
444;SDS011;209;48.774;9.238;2022-10-03T00:28:41;0.90;;;0.80;;
444;SDS011;209;48.774;9.238;2022-10-03T00:31:34;8.90;;;2.50;;
444;SDS011;209;48.774;9.238;2022-10-03T00:34:26;0.97;;;0.77;;
444;SDS011;209;48.774;9.238;2022-10-03T00:37:20;0.90;;;0.80;;
444;SDS011;209;48.774;9.238;2022-10-03T00:40:34;2.50;;;1.60;;
444;SDS011;209;48.774;9.238;2022-10-03T00:46:36;3.43;;;1.90;;
444;SDS011;209;48.774;9.238;2022-10-03T00:52:41;4.00;;;1.40;;
444;SDS011;209;48.774;9.238;2022-10-03T00:55:39;1.13;;;1.03;;
444;SDS011;209;48.774;9.238;2022-10-03T00:58:36;2.10;;;1.63;;
444;SDS011;209;48.774;9.238;2022-10-03T01:01:32;1.47;;;1.40;;
444;SDS011;209;48.774;9.238;2022-10-03T01:04:36;1.10;;;1.10;;
444;SDS011;209;48.774;9.238;2022-10-03T01:07:39;1.10;;;1.00;;
444;SDS011;209;48.774;9.238;2022-10-03T01:10:33;1.67;;;1.57;;
444;SDS011;209;48.774;9.238;2022-10-03T01:13:30;1.07;;;0.90;;
444;SDS011;209;48.774;9.238;2022-10-03T01:16:22;3.43;;;1.17;;
444;SDS011;209;48.774;9.238;2022-10-03T01:19:26;1.07;;;0.97;;
444;SDS011;209;48.774;9.238;2022-10-03T01:22:25;1.30;;;1.20;;
444;SDS011;209;48.774;9.238;2022-10-03T01:25:17;1.10;;;0.63;;
444;SDS011;209;48.774;9.238;2022-10-03T01:28:26;1.63;;;1.50;;
444;SDS011;209;48.774;9.238;2022-10-03T01:31:36;1.00;;;0.90;;
444;SDS011;209;48.774;9.238;2022-10-03T01:34:26;1.57;;;1.13;;
444;SDS011;209;48.774;9.238;2022-10-03T01:37:16;1.20;;;1.07;;
444;SDS011;209;48.774;9.238;2022-10-03T01:40:11;1.20;;;0.87;;
444;SDS011;209;48.774;9.238;2022-10-03T01:43:09;6.97;;;1.70;;
444;SDS011;209;48.774;9.238;2022-10-03T01:46:04;0.90;;;0.80;;
444;SDS011;209;48.774;9.238;2022-10-03T01:48:58;1.17;;;1.07;;
444;SDS011;209;48.774;9.238;2022-10-03T01:51:50;2.37;;;1.47;;
444;SDS011;209;48.774;9.238;2022-10-03T01:54:41;2.03;;;1.47;;
444;SDS011;209;48.774;9.238;2022-10-03T01:57:33;1.37;;;1.20;;
444;SDS011;209;48.774;9.238;2022-10-03T02:00:24;1.17;;;0.90;;
444;SDS011;209;48.774;9.238;2022-10-03T02:03:16;1.67;;;1.60;;
444;SDS011;209;48.774;9.238;2022-10-03T02:06:09;2.80;;;1.90;;
444;SDS011;209;48.774;9.238;2022-10-03T02:09:02;1.30;;;1.27;;
444;SDS011;209;48.774;9.238;2022-10-03T02:11:56;0.80;;;0.70;;
444;SDS011;209;48.774;9.238;2022-10-03T02:14:49;3.50;;;1.70;;
444;SDS011;209;48.774;9.238;2022-10-03T02:17:44;3.40;;;2.67;;
444;SDS011;209;48.774;9.238;2022-10-03T02:20:35;1.83;;;1.43;;
444;SDS011;209;48.774;9.238;2022-10-03T02:23:36;1.60;;;1.10;;
444;SDS011;209;48.774;9.238;2022-10-03T02:26:31;1.77;;;1.50;;
444;SDS011;209;48.774;9.238;2022-10-03T02:29:31;3.40;;;1.60;;
444;SDS011;209;48.774;9.238;2022-10-03T02:32:32;2.33;;;1.23;;
444;SDS011;209;48.774;9.238;2022-10-03T02:41:42;4.50;;;3.23;;
444;SDS011;209;48.774;9.238;2022-10-03T02:44:46;4.30;;;2.57;;
444;SDS011;209;48.774;9.238;2022-10-03T02:51:00;3.00;;;1.90;;
444;SDS011;209;48.774;9.238;2022-10-03T03:00:29;4.07;;;2.10;;
444;SDS011;209;48.774;9.238;2022-10-03T03:03:23;2.67;;;2.47;;
444;SDS011;209;48.774;9.238;2022-10-03T03:18:43;3.60;;;3.47;;
444;SDS011;209;48.774;9.238;2022-10-03T03:21:33;1.83;;;1.73;;
444;SDS011;209;48.774;9.238;2022-10-03T03:24:32;1.43;;;1.40;;
444;SDS011;209;48.774;9.238;2022-10-03T03:30:26;3.27;;;2.23;;
444;SDS011;209;48.774;9.238;2022-10-03T03:33:19;2.43;;;1.43;;
444;SDS011;209;48.774;9.238;2022-10-03T03:36:16;2.07;;;1.93;;
444;SDS011;209;48.774;9.238;2022-10-03T03:39:09;2.17;;;2.07;;
444;SDS011;209;48.774;9.238;2022-10-03T03:42:03;1.67;;;1.57;;
444;SDS011;209;48.774;9.238;2022-10-03T03:45:06;2.53;;;1.43;;
444;SDS011;209;48.774;9.238;2022-10-03T03:48:02;1.33;;;1.10;;
444;SDS011;209;48.774;9.238;2022-10-03T03:51:02;1.13;;;1.13;;
444;SDS011;209;48.774;9.238;2022-10-03T03:54:02;2.00;;;1.63;;
444;SDS011;209;48.774;9.238;2022-10-03T03:56:55;0.93;;;0.93;;
444;SDS011;209;48.774;9.238;2022-10-03T03:59:50;2.60;;;2.03;;
444;SDS011;209;48.774;9.238;2022-10-03T04:02:48;4.83;;;2.43;;
444;SDS011;209;48.774;9.238;2022-10-03T04:05:49;2.03;;;1.27;;
444;SDS011;209;48.774;9.238;2022-10-03T04:08:46;1.70;;;1.60;;
444;SDS011;209;48.774;9.238;2022-10-03T04:11:51;2.67;;;1.80;;
444;SDS011;209;48.774;9.238;2022-10-03T04:14:47;2.00;;;1.33;;
444;SDS011;209;48.774;9.238;2022-10-03T04:17:45;1.93;;;1.53;;
444;SDS011;209;48.774;9.238;2022-10-03T04:20:56;2.40;;;1.23;;
444;SDS011;209;48.774;9.238;2022-10-03T04:23:55;1.87;;;1.20;;
444;SDS011;209;48.774;9.238;2022-10-03T04:26:54;1.80;;;1.50;;
444;SDS011;209;48.774;9.238;2022-10-03T04:29:46;3.17;;;1.77;;
444;SDS011;209;48.774;9.238;2022-10-03T04:32:51;1.27;;;1.17;;
444;SDS011;209;48.774;9.238;2022-10-03T04:38:53;1.57;;;1.13;;
444;SDS011;209;48.774;9.238;2022-10-03T04:41:46;2.33;;;2.13;;
444;SDS011;209;48.774;9.238;2022-10-03T04:44:46;2.13;;;1.97;;
444;SDS011;209;48.774;9.238;2022-10-03T04:47:38;2.00;;;1.47;;
444;SDS011;209;48.774;9.238;2022-10-03T04:50:30;2.60;;;1.93;;
444;SDS011;209;48.774;9.238;2022-10-03T04:53:22;2.57;;;1.70;;
444;SDS011;209;48.774;9.238;2022-10-03T04:56:19;1.63;;;0.80;;
444;SDS011;209;48.774;9.238;2022-10-03T04:59:11;1.57;;;1.00;;
444;SDS011;209;48.774;9.238;2022-10-03T05:02:09;2.40;;;1.67;;
444;SDS011;209;48.774;9.238;2022-10-03T05:08:20;1.67;;;1.43;;
444;SDS011;209;48.774;9.238;2022-10-03T05:11:13;1.77;;;1.60;;
444;SDS011;209;48.774;9.238;2022-10-03T05:14:06;1.60;;;0.97;;
444;SDS011;209;48.774;9.238;2022-10-03T05:16:59;1.67;;;1.57;;
444;SDS011;209;48.774;9.238;2022-10-03T05:19:56;2.20;;;1.30;;
444;SDS011;209;48.774;9.238;2022-10-03T05:22:49;3.43;;;2.10;;
444;SDS011;209;48.774;9.238;2022-10-03T05:25:42;1.83;;;1.37;;
444;SDS011;209;48.774;9.238;2022-10-03T05:28:35;3.33;;;2.40;;
444;SDS011;209;48.774;9.238;2022-10-03T05:31:30;3.30;;;1.73;;
444;SDS011;209;48.774;9.238;2022-10-03T05:34:27;2.03;;;1.70;;
444;SDS011;209;48.774;9.238;2022-10-03T05:37:26;2.50;;;1.80;;
444;SDS011;209;48.774;9.238;2022-10-03T05:40:17;4.83;;;3.03;;
444;SDS011;209;48.774;9.238;2022-10-03T05:43:22;4.10;;;2.20;;
444;SDS011;209;48.774;9.238;2022-10-03T05:46:13;2.33;;;2.03;;
444;SDS011;209;48.774;9.238;2022-10-03T05:49:09;2.97;;;1.77;;
444;SDS011;209;48.774;9.238;2022-10-03T05:52:07;1.93;;;1.70;;
444;SDS011;209;48.774;9.238;2022-10-03T05:55:11;8.13;;;1.57;;
444;SDS011;209;48.774;9.238;2022-10-03T06:01:15;2.40;;;1.40;;
444;SDS011;209;48.774;9.238;2022-10-03T06:04:20;4.53;;;3.03;;
444;SDS011;209;48.774;9.238;2022-10-03T06:07:13;3.27;;;1.90;;
444;SDS011;209;48.774;9.238;2022-10-03T06:10:22;1.33;;;1.00;;
444;SDS011;209;48.774;9.238;2022-10-03T06:13:19;3.00;;;2.10;;
444;SDS011;209;48.774;9.238;2022-10-03T06:16:13;3.30;;;2.40;;
444;SDS011;209;48.774;9.238;2022-10-03T06:19:08;5.50;;;1.97;;
444;SDS011;209;48.774;9.238;2022-10-03T06:22:18;2.47;;;2.27;;
444;SDS011;209;48.774;9.238;2022-10-03T06:28:30;3.70;;;3.50;;
444;SDS011;209;48.774;9.238;2022-10-03T06:31:29;5.50;;;3.47;;
444;SDS011;209;48.774;9.238;2022-10-03T06:34:29;3.07;;;2.93;;
444;SDS011;209;48.774;9.238;2022-10-03T06:43:42;3.83;;;2.80;;
444;SDS011;209;48.774;9.238;2022-10-03T06:49:47;5.03;;;1.93;;
444;SDS011;209;48.774;9.238;2022-10-03T06:52:51;5.93;;;2.90;;
444;SDS011;209;48.774;9.238;2022-10-03T06:55:51;4.23;;;3.67;;
444;SDS011;209;48.774;9.238;2022-10-03T06:58:47;5.23;;;3.70;;
444;SDS011;209;48.774;9.238;2022-10-03T07:10:56;3.60;;;3.40;;
444;SDS011;209;48.774;9.238;2022-10-03T07:14:03;2.73;;;2.63;;
444;SDS011;209;48.774;9.238;2022-10-03T07:17:03;4.03;;;3.37;;
444;SDS011;209;48.774;9.238;2022-10-03T07:20:00;3.20;;;2.60;;
444;SDS011;209;48.774;9.238;2022-10-03T07:29:16;5.07;;;2.93;;
444;SDS011;209;48.774;9.238;2022-10-03T07:38:59;6.33;;;3.63;;
444;SDS011;209;48.774;9.238;2022-10-03T07:48:07;1.60;;;1.40;;
444;SDS011;209;48.774;9.238;2022-10-03T07:51:03;3.07;;;2.87;;
444;SDS011;209;48.774;9.238;2022-10-03T07:57:21;6.03;;;2.63;;
444;SDS011;209;48.774;9.238;2022-10-03T08:00:14;5.30;;;3.40;;
444;SDS011;209;48.774;9.238;2022-10-03T08:06:16;4.23;;;2.93;;
444;SDS011;209;48.774;9.238;2022-10-03T08:09:27;2.00;;;1.53;;
444;SDS011;209;48.774;9.238;2022-10-03T08:12:25;2.17;;;1.97;;
444;SDS011;209;48.774;9.238;2022-10-03T08:15:20;3.00;;;2.53;;
444;SDS011;209;48.774;9.238;2022-10-03T08:18:19;3.03;;;2.27;;
444;SDS011;209;48.774;9.238;2022-10-03T08:21:13;2.47;;;2.27;;
444;SDS011;209;48.774;9.238;2022-10-03T08:24:15;2.40;;;2.03;;
444;SDS011;209;48.774;9.238;2022-10-03T08:30:17;3.70;;;2.83;;
444;SDS011;209;48.774;9.238;2022-10-03T08:33:11;3.63;;;2.10;;
444;SDS011;209;48.774;9.238;2022-10-03T08:36:19;3.40;;;2.43;;
444;SDS011;209;48.774;9.238;2022-10-03T08:39:25;2.30;;;1.50;;
444;SDS011;209;48.774;9.238;2022-10-03T08:42:32;1.73;;;1.60;;
444;SDS011;209;48.774;9.238;2022-10-03T08:45:36;3.03;;;1.87;;
444;SDS011;209;48.774;9.238;2022-10-03T08:54:47;2.30;;;1.80;;
444;SDS011;209;48.774;9.238;2022-10-03T08:57:52;1.23;;;1.00;;
444;SDS011;209;48.774;9.238;2022-10-03T09:00:53;1.37;;;1.20;;
444;SDS011;209;48.774;9.238;2022-10-03T09:07:04;3.63;;;1.50;;
444;SDS011;209;48.774;9.238;2022-10-03T09:16:14;1.80;;;1.70;;
444;SDS011;209;48.774;9.238;2022-10-03T09:19:07;1.70;;;1.63;;
444;SDS011;209;48.774;9.238;2022-10-03T09:25:18;2.53;;;1.40;;
444;SDS011;209;48.774;9.238;2022-10-03T09:28:16;2.43;;;1.77;;
444;SDS011;209;48.774;9.238;2022-10-03T09:31:14;1.93;;;1.10;;
444;SDS011;209;48.774;9.238;2022-10-03T09:34:09;2.83;;;1.77;;
444;SDS011;209;48.774;9.238;2022-10-03T09:37:08;4.70;;;1.47;;
444;SDS011;209;48.774;9.238;2022-10-03T09:43:26;1.90;;;1.80;;
444;SDS011;209;48.774;9.238;2022-10-03T09:49:32;2.03;;;1.30;;
444;SDS011;209;48.774;9.238;2022-10-03T09:52:27;1.30;;;1.20;;
444;SDS011;209;48.774;9.238;2022-10-03T09:55:24;1.00;;;0.90;;
444;SDS011;209;48.774;9.238;2022-10-03T10:01:24;1.07;;;0.90;;
444;SDS011;209;48.774;9.238;2022-10-03T10:04:24;3.03;;;1.87;;
444;SDS011;209;48.774;9.238;2022-10-03T10:07:27;1.63;;;1.10;;
444;SDS011;209;48.774;9.238;2022-10-03T10:19:39;1.50;;;1.33;;
444;SDS011;209;48.774;9.238;2022-10-03T10:28:51;2.30;;;1.50;;
444;SDS011;209;48.774;9.238;2022-10-03T10:38:23;1.57;;;1.30;;
444;SDS011;209;48.774;9.238;2022-10-03T10:41:24;0.80;;;0.60;;
444;SDS011;209;48.774;9.238;2022-10-03T10:47:30;1.10;;;0.97;;
444;SDS011;209;48.774;9.238;2022-10-03T10:50:30;1.60;;;1.50;;
444;SDS011;209;48.774;9.238;2022-10-03T10:56:38;2.10;;;1.50;;
444;SDS011;209;48.774;9.238;2022-10-03T11:12:39;0.87;;;0.80;;
444;SDS011;209;48.774;9.238;2022-10-03T11:22:17;1.83;;;1.70;;
444;SDS011;209;48.774;9.238;2022-10-03T11:37:56;2.10;;;1.80;;
444;SDS011;209;48.774;9.238;2022-10-03T11:40:51;2.67;;;2.03;;
444;SDS011;209;48.774;9.238;2022-10-03T11:43:50;1.07;;;1.07;;
444;SDS011;209;48.774;9.238;2022-10-03T11:46:50;1.27;;;0.90;;
444;SDS011;209;48.774;9.238;2022-10-03T11:49:48;2.00;;;1.20;;
444;SDS011;209;48.774;9.238;2022-10-03T11:52:44;2.00;;;1.70;;
444;SDS011;209;48.774;9.238;2022-10-03T11:55:43;1.30;;;1.00;;
444;SDS011;209;48.774;9.238;2022-10-03T11:58:39;1.20;;;1.10;;
444;SDS011;209;48.774;9.238;2022-10-03T12:01:34;5.03;;;1.47;;
444;SDS011;209;48.774;9.238;2022-10-03T12:04:26;1.23;;;0.87;;
444;SDS011;209;48.774;9.238;2022-10-03T12:07:19;1.60;;;1.10;;
444;SDS011;209;48.774;9.238;2022-10-03T12:10:34;1.53;;;1.43;;
444;SDS011;209;48.774;9.238;2022-10-03T12:13:28;1.13;;;1.03;;
444;SDS011;209;48.774;9.238;2022-10-03T12:16:19;0.90;;;0.70;;
444;SDS011;209;48.774;9.238;2022-10-03T12:19:14;0.70;;;0.70;;
444;SDS011;209;48.774;9.238;2022-10-03T12:22:12;0.90;;;0.80;;
444;SDS011;209;48.774;9.238;2022-10-03T12:25:06;1.13;;;1.03;;
444;SDS011;209;48.774;9.238;2022-10-03T12:28:01;2.00;;;1.60;;
444;SDS011;209;48.774;9.238;2022-10-03T12:30:53;2.33;;;1.37;;
444;SDS011;209;48.774;9.238;2022-10-03T12:33:47;1.83;;;0.73;;
444;SDS011;209;48.774;9.238;2022-10-03T12:36:42;1.50;;;1.00;;
444;SDS011;209;48.774;9.238;2022-10-03T12:39:36;1.60;;;1.23;;
444;SDS011;209;48.774;9.238;2022-10-03T12:42:27;1.30;;;1.00;;
444;SDS011;209;48.774;9.238;2022-10-03T12:45:22;1.10;;;0.80;;
444;SDS011;209;48.774;9.238;2022-10-03T12:51:28;1.33;;;1.10;;
444;SDS011;209;48.774;9.238;2022-10-03T12:54:38;1.20;;;1.10;;
444;SDS011;209;48.774;9.238;2022-10-03T12:57:37;1.13;;;1.03;;
444;SDS011;209;48.774;9.238;2022-10-03T13:00:31;3.53;;;0.97;;
444;SDS011;209;48.774;9.238;2022-10-03T13:03:21;1.30;;;1.00;;
444;SDS011;209;48.774;9.238;2022-10-03T13:09:23;2.40;;;1.03;;
444;SDS011;209;48.774;9.238;2022-10-03T13:12:13;1.83;;;1.30;;
444;SDS011;209;48.774;9.238;2022-10-03T13:18:28;1.17;;;1.10;;
444;SDS011;209;48.774;9.238;2022-10-03T13:21:18;1.23;;;0.53;;
444;SDS011;209;48.774;9.238;2022-10-03T13:24:08;1.70;;;1.07;;
444;SDS011;209;48.774;9.238;2022-10-03T13:27:04;0.60;;;0.60;;
444;SDS011;209;48.774;9.238;2022-10-03T13:29:58;1.67;;;0.90;;
444;SDS011;209;48.774;9.238;2022-10-03T13:32:51;0.90;;;0.60;;
444;SDS011;209;48.774;9.238;2022-10-03T13:35:42;1.23;;;1.10;;
444;SDS011;209;48.774;9.238;2022-10-03T13:41:55;0.63;;;0.43;;
444;SDS011;209;48.774;9.238;2022-10-03T13:44:47;0.77;;;0.77;;
444;SDS011;209;48.774;9.238;2022-10-03T13:47:42;1.20;;;0.93;;
444;SDS011;209;48.774;9.238;2022-10-03T13:50:32;1.10;;;0.90;;
444;SDS011;209;48.774;9.238;2022-10-03T13:53:29;0.60;;;0.60;;
444;SDS011;209;48.774;9.238;2022-10-03T13:56:20;0.90;;;0.87;;
444;SDS011;209;48.774;9.238;2022-10-03T13:59:14;1.00;;;0.57;;
444;SDS011;209;48.774;9.238;2022-10-03T14:02:09;1.13;;;1.13;;
444;SDS011;209;48.774;9.238;2022-10-03T14:05:15;2.07;;;1.27;;
444;SDS011;209;48.774;9.238;2022-10-03T14:08:07;0.80;;;0.63;;
444;SDS011;209;48.774;9.238;2022-10-03T14:11:01;1.43;;;1.30;;
444;SDS011;209;48.774;9.238;2022-10-03T14:13:57;0.70;;;0.50;;
444;SDS011;209;48.774;9.238;2022-10-03T14:16:51;0.90;;;0.73;;
444;SDS011;209;48.774;9.238;2022-10-03T14:19:46;1.00;;;0.60;;
444;SDS011;209;48.774;9.238;2022-10-03T14:22:39;4.40;;;0.87;;
444;SDS011;209;48.774;9.238;2022-10-03T14:25:30;0.83;;;0.60;;
444;SDS011;209;48.774;9.238;2022-10-03T14:28:21;2.37;;;1.13;;
444;SDS011;209;48.774;9.238;2022-10-03T14:31:11;1.10;;;1.00;;
444;SDS011;209;48.774;9.238;2022-10-03T14:34:03;1.40;;;1.27;;
444;SDS011;209;48.774;9.238;2022-10-03T14:36:58;3.37;;;1.00;;
444;SDS011;209;48.774;9.238;2022-10-03T14:39:50;0.80;;;0.80;;
444;SDS011;209;48.774;9.238;2022-10-03T14:42:46;0.77;;;0.73;;
444;SDS011;209;48.774;9.238;2022-10-03T14:45:37;1.97;;;1.10;;
444;SDS011;209;48.774;9.238;2022-10-03T14:48:27;1.07;;;0.70;;
444;SDS011;209;48.774;9.238;2022-10-03T14:51:18;0.90;;;0.80;;
444;SDS011;209;48.774;9.238;2022-10-03T14:54:18;1.60;;;0.43;;
444;SDS011;209;48.774;9.238;2022-10-03T14:57:12;0.60;;;0.40;;
444;SDS011;209;48.774;9.238;2022-10-03T15:00:00;1.80;;;1.23;;
444;SDS011;209;48.774;9.238;2022-10-03T15:02:49;2.93;;;0.90;;
444;SDS011;209;48.774;9.238;2022-10-03T15:05:49;1.90;;;1.30;;
444;SDS011;209;48.774;9.238;2022-10-03T15:08:38;0.60;;;0.50;;
444;SDS011;209;48.774;9.238;2022-10-03T15:11:29;1.40;;;0.80;;
444;SDS011;209;48.774;9.238;2022-10-03T15:14:17;0.80;;;0.50;;
444;SDS011;209;48.774;9.238;2022-10-03T15:17:06;1.73;;;0.87;;
444;SDS011;209;48.774;9.238;2022-10-03T15:20:02;0.73;;;0.60;;
444;SDS011;209;48.774;9.238;2022-10-03T15:22:52;0.60;;;0.40;;
444;SDS011;209;48.774;9.238;2022-10-03T15:25:40;0.77;;;0.57;;
444;SDS011;209;48.774;9.238;2022-10-03T15:28:35;1.03;;;0.93;;
444;SDS011;209;48.774;9.238;2022-10-03T15:31:25;1.40;;;1.37;;
444;SDS011;209;48.774;9.238;2022-10-03T15:34:16;0.87;;;0.73;;
444;SDS011;209;48.774;9.238;2022-10-03T15:37:05;0.57;;;0.40;;
444;SDS011;209;48.774;9.238;2022-10-03T15:39:57;0.70;;;0.60;;
444;SDS011;209;48.774;9.238;2022-10-03T15:42:48;1.00;;;0.90;;
444;SDS011;209;48.774;9.238;2022-10-03T15:45:37;0.77;;;0.70;;
444;SDS011;209;48.774;9.238;2022-10-03T15:48:25;2.03;;;0.93;;
444;SDS011;209;48.774;9.238;2022-10-03T15:51:16;1.03;;;0.97;;
444;SDS011;209;48.774;9.238;2022-10-03T15:54:06;0.70;;;0.60;;
444;SDS011;209;48.774;9.238;2022-10-03T15:56:55;1.27;;;0.90;;
444;SDS011;209;48.774;9.238;2022-10-03T15:59:44;0.70;;;0.50;;
444;SDS011;209;48.774;9.238;2022-10-03T16:02:37;1.10;;;1.00;;
444;SDS011;209;48.774;9.238;2022-10-03T16:05:27;1.03;;;0.93;;
444;SDS011;209;48.774;9.238;2022-10-03T16:08:16;0.90;;;0.90;;
444;SDS011;209;48.774;9.238;2022-10-03T16:11:07;1.13;;;0.93;;
444;SDS011;209;48.774;9.238;2022-10-03T16:14:03;1.23;;;0.90;;
444;SDS011;209;48.774;9.238;2022-10-03T16:16:57;1.53;;;0.80;;
444;SDS011;209;48.774;9.238;2022-10-03T16:19:49;0.80;;;0.70;;
444;SDS011;209;48.774;9.238;2022-10-03T16:22:39;1.17;;;0.90;;
444;SDS011;209;48.774;9.238;2022-10-03T16:25:30;1.23;;;1.07;;
444;SDS011;209;48.774;9.238;2022-10-03T16:28:27;0.80;;;0.67;;
444;SDS011;209;48.774;9.238;2022-10-03T16:31:17;0.90;;;0.70;;
444;SDS011;209;48.774;9.238;2022-10-03T16:34:06;0.80;;;0.77;;
444;SDS011;209;48.774;9.238;2022-10-03T16:36:59;0.90;;;0.70;;
444;SDS011;209;48.774;9.238;2022-10-03T16:39:52;0.80;;;0.60;;
444;SDS011;209;48.774;9.238;2022-10-03T16:42:41;0.60;;;0.53;;
444;SDS011;209;48.774;9.238;2022-10-03T16:45:31;1.10;;;1.00;;
444;SDS011;209;48.774;9.238;2022-10-03T16:48:21;1.00;;;0.53;;
444;SDS011;209;48.774;9.238;2022-10-03T16:51:33;3.47;;;1.23;;
444;SDS011;209;48.774;9.238;2022-10-03T16:54:24;1.53;;;0.80;;
444;SDS011;209;48.774;9.238;2022-10-03T16:57:17;0.67;;;0.60;;
444;SDS011;209;48.774;9.238;2022-10-03T17:00:09;0.80;;;0.80;;
444;SDS011;209;48.774;9.238;2022-10-03T17:03:00;1.00;;;0.90;;
444;SDS011;209;48.774;9.238;2022-10-03T17:05:51;1.60;;;1.00;;
444;SDS011;209;48.774;9.238;2022-10-03T17:08:41;1.83;;;1.40;;
444;SDS011;209;48.774;9.238;2022-10-03T17:11:34;1.47;;;1.43;;
444;SDS011;209;48.774;9.238;2022-10-03T17:14:24;0.83;;;0.80;;
444;SDS011;209;48.774;9.238;2022-10-03T17:17:19;1.07;;;0.90;;
444;SDS011;209;48.774;9.238;2022-10-03T17:20:10;1.07;;;1.00;;
444;SDS011;209;48.774;9.238;2022-10-03T17:22:59;0.60;;;0.50;;
444;SDS011;209;48.774;9.238;2022-10-03T17:25:49;2.17;;;1.60;;
444;SDS011;209;48.774;9.238;2022-10-03T17:28:40;5.60;;;1.17;;
444;SDS011;209;48.774;9.238;2022-10-03T17:31:29;1.63;;;1.53;;
444;SDS011;209;48.774;9.238;2022-10-03T17:34:18;0.90;;;0.90;;
444;SDS011;209;48.774;9.238;2022-10-03T17:37:11;3.80;;;1.20;;
444;SDS011;209;48.774;9.238;2022-10-03T17:40:02;1.27;;;0.70;;
444;SDS011;209;48.774;9.238;2022-10-03T17:42:59;1.00;;;0.80;;
444;SDS011;209;48.774;9.238;2022-10-03T17:45:52;1.17;;;1.07;;
444;SDS011;209;48.774;9.238;2022-10-03T17:48:42;1.13;;;0.80;;
444;SDS011;209;48.774;9.238;2022-10-03T17:51:33;0.73;;;0.53;;
444;SDS011;209;48.774;9.238;2022-10-03T17:54:23;3.20;;;1.67;;
444;SDS011;209;48.774;9.238;2022-10-03T17:57:15;2.27;;;1.33;;
444;SDS011;209;48.774;9.238;2022-10-03T18:00:04;1.63;;;1.40;;
444;SDS011;209;48.774;9.238;2022-10-03T18:02:56;1.50;;;1.07;;
444;SDS011;209;48.774;9.238;2022-10-03T18:05:46;1.23;;;1.17;;
444;SDS011;209;48.774;9.238;2022-10-03T18:08:35;1.67;;;1.40;;
444;SDS011;209;48.774;9.238;2022-10-03T18:11:25;5.23;;;1.60;;
444;SDS011;209;48.774;9.238;2022-10-03T18:14:14;1.70;;;1.17;;
444;SDS011;209;48.774;9.238;2022-10-03T18:17:06;1.17;;;1.07;;
444;SDS011;209;48.774;9.238;2022-10-03T18:19:59;2.00;;;1.27;;
444;SDS011;209;48.774;9.238;2022-10-03T18:22:53;1.37;;;0.80;;
444;SDS011;209;48.774;9.238;2022-10-03T18:25:49;1.40;;;1.13;;
444;SDS011;209;48.774;9.238;2022-10-03T18:28:46;2.77;;;0.80;;
444;SDS011;209;48.774;9.238;2022-10-03T18:31:37;1.03;;;0.93;;
444;SDS011;209;48.774;9.238;2022-10-03T18:34:26;1.53;;;1.33;;
444;SDS011;209;48.774;9.238;2022-10-03T18:40:27;2.73;;;1.67;;
444;SDS011;209;48.774;9.238;2022-10-03T18:43:23;3.20;;;2.27;;
444;SDS011;209;48.774;9.238;2022-10-03T18:46:13;1.27;;;0.97;;
444;SDS011;209;48.774;9.238;2022-10-03T18:49:04;2.70;;;1.30;;
444;SDS011;209;48.774;9.238;2022-10-03T18:54:32;0.93;;;0.83;;
444;SDS011;209;48.774;9.238;2022-10-03T18:57:22;1.00;;;0.80;;
444;SDS011;209;48.774;9.238;2022-10-03T19:00:14;2.60;;;1.30;;
444;SDS011;209;48.774;9.238;2022-10-03T19:03:06;1.53;;;1.47;;
444;SDS011;209;48.774;9.238;2022-10-03T19:05:56;0.93;;;0.70;;
444;SDS011;209;48.774;9.238;2022-10-03T19:08:47;1.17;;;1.00;;
444;SDS011;209;48.774;9.238;2022-10-03T19:11:36;0.97;;;0.93;;
444;SDS011;209;48.774;9.238;2022-10-03T19:14:29;1.10;;;1.00;;
444;SDS011;209;48.774;9.238;2022-10-03T19:17:22;1.87;;;1.63;;
444;SDS011;209;48.774;9.238;2022-10-03T19:20:17;1.67;;;1.67;;
444;SDS011;209;48.774;9.238;2022-10-03T19:23:08;1.80;;;1.70;;
444;SDS011;209;48.774;9.238;2022-10-03T19:25:59;1.30;;;1.10;;
444;SDS011;209;48.774;9.238;2022-10-03T19:28:48;0.70;;;0.60;;
444;SDS011;209;48.774;9.238;2022-10-03T19:31:38;3.90;;;2.10;;
444;SDS011;209;48.774;9.238;2022-10-03T19:34:29;1.07;;;1.00;;
444;SDS011;209;48.774;9.238;2022-10-03T19:37:27;1.57;;;1.50;;
444;SDS011;209;48.774;9.238;2022-10-03T19:40:21;1.63;;;1.53;;
444;SDS011;209;48.774;9.238;2022-10-03T19:46:24;0.83;;;0.83;;
444;SDS011;209;48.774;9.238;2022-10-03T19:49:20;1.83;;;1.80;;
444;SDS011;209;48.774;9.238;2022-10-03T19:52:12;0.70;;;0.67;;
444;SDS011;209;48.774;9.238;2022-10-03T19:55:02;1.80;;;1.80;;
444;SDS011;209;48.774;9.238;2022-10-03T19:57:51;1.77;;;1.33;;
444;SDS011;209;48.774;9.238;2022-10-03T20:00:47;1.40;;;1.00;;
444;SDS011;209;48.774;9.238;2022-10-03T20:03:36;1.57;;;1.23;;
444;SDS011;209;48.774;9.238;2022-10-03T20:06:28;1.20;;;1.10;;
444;SDS011;209;48.774;9.238;2022-10-03T20:09:18;2.40;;;1.13;;
444;SDS011;209;48.774;9.238;2022-10-03T20:12:09;4.97;;;1.50;;
444;SDS011;209;48.774;9.238;2022-10-03T20:14:58;2.47;;;1.20;;
444;SDS011;209;48.774;9.238;2022-10-03T20:17:47;1.37;;;1.27;;
444;SDS011;209;48.774;9.238;2022-10-03T20:20:35;3.53;;;2.67;;
444;SDS011;209;48.774;9.238;2022-10-03T20:23:28;2.50;;;2.40;;
444;SDS011;209;48.774;9.238;2022-10-03T20:26:20;2.20;;;2.00;;
444;SDS011;209;48.774;9.238;2022-10-03T20:29:18;1.23;;;1.23;;
444;SDS011;209;48.774;9.238;2022-10-03T20:32:11;0.60;;;0.53;;
444;SDS011;209;48.774;9.238;2022-10-03T20:35:00;1.10;;;1.07;;
444;SDS011;209;48.774;9.238;2022-10-03T20:37:49;0.90;;;0.80;;
444;SDS011;209;48.774;9.238;2022-10-03T20:40:40;3.40;;;1.90;;
444;SDS011;209;48.774;9.238;2022-10-03T20:43:34;3.47;;;1.63;;
444;SDS011;209;48.774;9.238;2022-10-03T20:46:23;2.93;;;1.43;;
444;SDS011;209;48.774;9.238;2022-10-03T20:49:12;2.47;;;2.27;;
444;SDS011;209;48.774;9.238;2022-10-03T20:52:07;2.20;;;1.43;;
444;SDS011;209;48.774;9.238;2022-10-03T20:54:56;1.40;;;1.30;;
444;SDS011;209;48.774;9.238;2022-10-03T20:57:48;1.60;;;1.43;;
444;SDS011;209;48.774;9.238;2022-10-03T21:00:40;1.93;;;1.57;;
444;SDS011;209;48.774;9.238;2022-10-03T21:03:31;3.77;;;1.57;;
444;SDS011;209;48.774;9.238;2022-10-03T21:06:25;3.60;;;1.00;;
444;SDS011;209;48.774;9.238;2022-10-03T21:09:15;1.13;;;1.03;;
444;SDS011;209;48.774;9.238;2022-10-03T21:12:04;1.77;;;1.67;;
444;SDS011;209;48.774;9.238;2022-10-03T21:14:56;1.67;;;1.07;;
444;SDS011;209;48.774;9.238;2022-10-03T21:17:47;2.07;;;1.87;;
444;SDS011;209;48.774;9.238;2022-10-03T21:20:36;2.60;;;2.40;;
444;SDS011;209;48.774;9.238;2022-10-03T21:23:24;1.60;;;1.50;;
444;SDS011;209;48.774;9.238;2022-10-03T21:26:13;1.93;;;1.83;;
444;SDS011;209;48.774;9.238;2022-10-03T21:29:14;2.20;;;1.73;;
444;SDS011;209;48.774;9.238;2022-10-03T21:32:13;6.00;;;3.20;;
444;SDS011;209;48.774;9.238;2022-10-03T21:35:04;1.57;;;0.80;;
444;SDS011;209;48.774;9.238;2022-10-03T21:38:04;1.53;;;1.43;;
444;SDS011;209;48.774;9.238;2022-10-03T21:41:07;1.40;;;1.30;;
444;SDS011;209;48.774;9.238;2022-10-03T21:43:59;0.90;;;0.87;;
444;SDS011;209;48.774;9.238;2022-10-03T21:46:50;10.83;;;2.20;;
444;SDS011;209;48.774;9.238;2022-10-03T21:49:45;2.00;;;1.70;;
444;SDS011;209;48.774;9.238;2022-10-03T21:52:39;1.40;;;1.30;;
444;SDS011;209;48.774;9.238;2022-10-03T21:55:34;0.97;;;0.90;;
444;SDS011;209;48.774;9.238;2022-10-03T21:58:29;3.43;;;2.67;;
444;SDS011;209;48.774;9.238;2022-10-03T22:01:21;1.80;;;1.40;;
444;SDS011;209;48.774;9.238;2022-10-03T22:04:13;1.80;;;1.73;;
444;SDS011;209;48.774;9.238;2022-10-03T22:07:04;1.23;;;1.07;;
444;SDS011;209;48.774;9.238;2022-10-03T22:09:55;2.00;;;1.90;;